createdAt,value
2017-11-03T00:00:12.260Z,37.70
2017-11-03T00:02:39.759Z,38.50
2017-11-03T00:05:07.230Z,38.87
2017-11-03T00:07:34.694Z,37.10
2017-11-03T00:10:02.261Z,37.80
2017-11-03T00:12:29.757Z,39.60
2017-11-03T00:14:57.295Z,38.10
2017-11-03T00:17:24.752Z,39.20
2017-11-03T00:19:52.217Z,36.83
2017-11-03T00:22:19.766Z,40.03
2017-11-03T00:24:47.371Z,39.57
2017-11-03T00:27:14.852Z,41.80
2017-11-03T00:29:43.082Z,41.03
2017-11-03T00:32:11.327Z,38.77
2017-11-03T00:34:38.794Z,40.30
2017-11-03T00:37:07.188Z,39.73
2017-11-03T00:39:34.648Z,41.73
2017-11-03T00:42:02.892Z,41.50
2017-11-03T00:44:30.377Z,40.87
2017-11-03T00:46:58.633Z,40.70
2017-11-03T00:49:26.246Z,39.97
2017-11-03T00:51:53.790Z,40.30
2017-11-03T00:54:21.318Z,41.23
2017-11-03T00:56:50.405Z,40.07
2017-11-03T00:59:17.880Z,41.03
2017-11-03T01:01:46.161Z,38.57
2017-11-03T01:04:14.459Z,43.03
2017-11-03T01:06:42.021Z,39.90
2017-11-03T01:09:09.605Z,41.47
2017-11-03T01:11:37.107Z,41.10
2017-11-03T01:14:04.577Z,42.37
2017-11-03T01:16:32.829Z,41.60
2017-11-03T01:19:00.299Z,40.97
2017-11-03T01:21:28.552Z,40.80
2017-11-03T01:23:56.012Z,40.10
2017-11-03T01:26:23.484Z,38.90
2017-11-03T01:28:50.970Z,40.63
2017-11-03T01:31:18.585Z,42.87
2017-11-03T01:33:46.065Z,39.10
2017-11-03T01:36:14.520Z,41.07
2017-11-03T01:38:42.102Z,41.17
2017-11-03T01:41:09.576Z,39.43
2017-11-03T01:43:37.827Z,38.50
2017-11-03T01:46:05.399Z,39.03
2017-11-03T01:48:32.986Z,40.80
2017-11-03T01:51:00.478Z,38.83
2017-11-03T01:53:27.950Z,38.27
2017-11-03T01:55:55.612Z,38.63
2017-11-03T01:58:23.088Z,38.83
2017-11-03T02:00:51.321Z,39.23
2017-11-03T02:03:18.809Z,39.10
2017-11-03T02:05:47.063Z,41.73
2017-11-03T02:08:14.655Z,36.97
2017-11-03T02:10:43.079Z,37.80
2017-11-03T02:13:10.565Z,39.07
2017-11-03T02:15:38.047Z,39.10
2017-11-03T02:18:06.290Z,38.20
2017-11-03T02:20:33.887Z,38.87
2017-11-03T02:23:01.373Z,38.60
2017-11-03T02:25:28.839Z,38.90
2017-11-03T02:27:56.430Z,37.97
2017-11-03T02:30:23.948Z,37.90
2017-11-03T02:32:51.469Z,38.30
2017-11-03T02:35:19.704Z,36.20
2017-11-03T02:37:47.226Z,38.30
2017-11-03T02:40:14.718Z,38.17
2017-11-03T02:42:42.188Z,37.00
2017-11-03T02:45:09.671Z,38.17
2017-11-03T02:47:38.668Z,38.87
2017-11-03T02:50:06.181Z,37.27
2017-11-03T02:52:33.664Z,39.50
2017-11-03T02:55:01.149Z,38.47
2017-11-03T02:57:29.616Z,37.80
2017-11-03T02:59:57.972Z,36.20
2017-11-03T03:02:25.703Z,35.40
2017-11-03T03:04:53.206Z,37.67
2017-11-03T03:07:20.941Z,37.97
2017-11-03T03:09:48.451Z,40.03
2017-11-03T03:12:16.710Z,38.17
2017-11-03T03:14:44.972Z,36.97
2017-11-03T03:17:12.550Z,36.90
2017-11-03T03:19:40.051Z,37.67
2017-11-03T03:22:07.642Z,36.93
2017-11-03T03:24:35.122Z,36.13
2017-11-03T03:27:03.474Z,36.20
2017-11-03T03:29:30.962Z,37.00
2017-11-03T03:31:59.320Z,37.77
2017-11-03T03:34:26.810Z,35.97
2017-11-03T03:36:55.068Z,38.43
2017-11-03T03:39:23.347Z,37.03
2017-11-03T03:41:51.728Z,37.43
2017-11-03T03:44:20.037Z,35.93
2017-11-03T03:46:47.508Z,36.77
2017-11-03T03:49:14.990Z,35.60
2017-11-03T03:51:42.465Z,37.93
2017-11-03T03:54:09.976Z,37.07
2017-11-03T03:56:37.431Z,35.83
2017-11-03T03:59:04.909Z,37.20
2017-11-03T04:01:32.398Z,38.17
2017-11-03T04:03:59.869Z,35.17
2017-11-03T04:06:28.121Z,34.53
2017-11-03T04:08:55.590Z,38.33
2017-11-03T04:11:23.174Z,35.73
2017-11-03T04:13:50.642Z,38.17
2017-11-03T04:16:18.146Z,35.90
2017-11-03T04:18:45.632Z,38.73
2017-11-03T04:21:13.861Z,36.87
2017-11-03T04:23:41.364Z,36.10
2017-11-03T04:26:09.601Z,37.00
2017-11-03T04:28:37.135Z,36.57
2017-11-03T04:31:04.835Z,38.17
2017-11-03T04:33:32.357Z,38.20
2017-11-03T04:36:00.028Z,36.00
2017-11-03T04:38:27.497Z,36.37
2017-11-03T04:40:54.974Z,35.80
2017-11-03T04:43:22.507Z,36.43
2017-11-03T04:45:50.004Z,37.23
2017-11-03T04:48:18.237Z,38.93
2017-11-03T04:50:45.703Z,36.80
2017-11-03T04:53:13.176Z,36.00
2017-11-03T04:55:41.453Z,36.20
2017-11-03T04:58:09.738Z,37.60
2017-11-03T05:00:37.977Z,37.70
2017-11-03T05:03:05.461Z,38.00
2017-11-03T05:05:32.949Z,37.90
2017-11-03T05:08:00.588Z,39.07
2017-11-03T05:10:28.873Z,37.17
2017-11-03T05:12:57.121Z,38.33
2017-11-03T05:15:24.603Z,36.30
2017-11-03T05:17:52.897Z,36.40
2017-11-03T05:20:21.197Z,37.60
2017-11-03T05:22:48.676Z,36.83
2017-11-03T05:25:16.952Z,37.20
2017-11-03T05:27:44.439Z,37.97
2017-11-03T05:30:12.977Z,37.77
2017-11-03T05:32:40.460Z,37.93
2017-11-03T05:35:08.726Z,37.17
2017-11-03T05:37:36.208Z,38.00
2017-11-03T05:40:03.844Z,39.37
2017-11-03T05:42:31.320Z,38.60
2017-11-03T05:44:59.554Z,40.77
2017-11-03T05:47:27.033Z,39.03
2017-11-03T05:49:54.513Z,38.77
2017-11-03T05:52:22.000Z,39.90
2017-11-03T05:54:49.533Z,39.30
2017-11-03T05:57:17.000Z,37.63
2017-11-03T05:59:45.332Z,39.60
2017-11-03T06:02:12.851Z,40.83
2017-11-03T06:04:40.339Z,39.43
2017-11-03T06:07:07.809Z,39.73
2017-11-03T06:09:35.274Z,40.70
2017-11-03T06:12:03.528Z,40.93
2017-11-03T06:14:31.877Z,41.07
2017-11-03T06:16:59.355Z,45.00
2017-11-03T06:19:26.830Z,46.17
2017-11-03T06:21:54.469Z,47.87
2017-11-03T06:24:22.027Z,47.47
2017-11-03T06:26:49.521Z,47.70
2017-11-03T06:29:16.997Z,45.57
2017-11-03T06:31:44.482Z,47.50
2017-11-03T06:34:11.994Z,49.43
2017-11-03T06:36:39.495Z,51.07
2017-11-03T06:39:06.969Z,47.93
2017-11-03T06:41:34.486Z,48.07
2017-11-03T06:44:01.968Z,48.90
2017-11-03T06:46:29.477Z,48.93
2017-11-03T06:48:56.971Z,48.30
2017-11-03T06:51:25.273Z,50.00
2017-11-03T06:53:52.755Z,48.80
2017-11-03T06:56:20.238Z,48.97
2017-11-03T06:58:47.721Z,52.60
2017-11-03T07:01:16.042Z,51.07
2017-11-03T07:03:43.510Z,54.00
2017-11-03T07:06:10.979Z,51.53
2017-11-03T07:08:38.460Z,49.60
2017-11-03T07:11:06.717Z,52.07
2017-11-03T07:13:34.977Z,51.33
2017-11-03T07:16:02.468Z,50.80
2017-11-03T07:18:30.701Z,52.57
2017-11-03T07:20:58.183Z,53.73
2017-11-03T07:23:25.657Z,50.70
2017-11-03T07:25:54.073Z,50.90
2017-11-03T07:28:21.542Z,52.03
2017-11-03T07:30:49.025Z,50.40
2017-11-03T07:33:16.575Z,50.33
2017-11-03T07:35:44.077Z,51.60
2017-11-03T07:38:12.322Z,50.33
2017-11-03T07:40:39.806Z,49.20
2017-11-03T07:43:08.540Z,50.70
2017-11-03T07:45:36.841Z,49.57
2017-11-03T07:48:04.457Z,49.30
2017-11-03T07:50:32.064Z,49.10
2017-11-03T07:53:00.424Z,49.53
2017-11-03T07:55:27.887Z,50.30
2017-11-03T07:57:55.361Z,49.30
2017-11-03T08:00:23.609Z,52.23
2017-11-03T08:02:51.102Z,52.00
2017-11-03T08:05:19.939Z,52.83
2017-11-03T08:07:47.502Z,54.10
2017-11-03T08:10:15.000Z,58.30
2017-11-03T08:12:43.248Z,56.10
2017-11-03T08:15:10.941Z,54.03
2017-11-03T08:17:39.175Z,51.57
2017-11-03T08:20:06.653Z,51.87
2017-11-03T08:22:34.123Z,50.93
2017-11-03T08:25:02.446Z,47.73
2017-11-03T08:27:29.919Z,52.37
2017-11-03T08:29:57.483Z,51.30
2017-11-03T08:32:24.945Z,54.30
2017-11-03T08:34:52.423Z,50.30
2017-11-03T08:37:19.900Z,51.17
2017-11-03T08:39:48.175Z,48.47
2017-11-03T08:42:16.417Z,47.77
2017-11-03T08:44:43.912Z,44.57
2017-11-03T08:47:12.201Z,42.37
2017-11-03T08:49:39.690Z,39.37
2017-11-03T08:52:07.177Z,39.70
2017-11-03T08:54:34.649Z,38.93
2017-11-03T08:57:02.894Z,37.13
2017-11-03T08:59:30.383Z,38.77
2017-11-03T09:01:58.649Z,38.23
2017-11-03T09:04:26.123Z,38.90
2017-11-03T09:06:54.405Z,38.77
2017-11-03T09:09:21.870Z,36.30
2017-11-03T09:11:49.424Z,36.10
2017-11-03T09:14:16.941Z,36.23
2017-11-03T09:16:44.544Z,35.17
2017-11-03T09:19:12.045Z,35.50
2017-11-03T09:21:39.538Z,34.53
2017-11-03T09:24:08.820Z,34.30
2017-11-03T09:26:36.306Z,34.87
2017-11-03T09:29:04.814Z,34.63
2017-11-03T09:31:32.333Z,34.43
2017-11-03T09:33:59.974Z,32.50
2017-11-03T09:36:27.515Z,35.90
2017-11-03T09:38:55.047Z,33.27
2017-11-03T09:41:26.906Z,32.07
2017-11-03T09:43:54.542Z,32.27
2017-11-03T09:46:22.103Z,33.83
2017-11-03T09:48:49.646Z,34.27
2017-11-03T09:51:17.200Z,32.73
2017-11-03T09:53:44.854Z,33.20
2017-11-03T09:56:12.347Z,34.20
2017-11-03T09:58:39.877Z,32.87
2017-11-03T10:01:07.356Z,32.57
2017-11-03T10:03:35.609Z,31.23
2017-11-03T10:06:03.935Z,32.53
2017-11-03T10:08:31.420Z,32.50
2017-11-03T10:10:58.905Z,32.70
2017-11-03T10:13:27.179Z,32.50
2017-11-03T10:15:55.436Z,34.37
2017-11-03T10:21:16.544Z,32.97
2017-11-03T10:23:44.045Z,32.03
2017-11-03T10:26:11.583Z,30.63
2017-11-03T10:28:52.236Z,31.13
2017-11-03T10:31:19.705Z,29.10
2017-11-03T10:33:47.240Z,30.07
2017-11-03T10:36:14.874Z,29.20
2017-11-03T10:38:42.664Z,29.77
2017-11-03T10:41:10.349Z,31.00
2017-11-03T10:43:37.843Z,32.30
2017-11-03T10:46:05.521Z,31.37
2017-11-03T10:48:33.006Z,32.23
2017-11-03T10:51:00.522Z,32.20
2017-11-03T10:53:28.040Z,32.07
2017-11-03T10:55:55.510Z,31.70
2017-11-03T10:58:23.801Z,28.60
2017-11-03T11:00:52.082Z,31.67
2017-11-03T11:03:20.322Z,31.87
2017-11-03T11:05:47.805Z,34.20
2017-11-03T11:08:16.040Z,34.17
2017-11-03T11:10:43.541Z,34.10
2017-11-03T11:13:11.837Z,32.80
2017-11-03T11:15:39.498Z,33.70
2017-11-03T11:18:06.998Z,32.20
2017-11-03T11:20:34.490Z,33.03
2017-11-03T11:23:02.736Z,31.70
2017-11-03T11:25:30.462Z,31.60
2017-11-03T11:27:58.063Z,33.13
2017-11-03T11:30:25.545Z,32.73
2017-11-03T11:32:53.796Z,31.60
2017-11-03T11:35:21.285Z,32.50
2017-11-03T11:37:49.574Z,32.23
2017-11-03T11:40:17.039Z,30.50
2017-11-03T11:42:44.521Z,30.83
2017-11-03T11:45:12.299Z,30.07
2017-11-03T11:47:39.792Z,31.43
2017-11-03T11:50:08.152Z,30.37
2017-11-03T11:52:37.136Z,28.97
2017-11-03T11:55:05.592Z,31.17
2017-11-03T11:57:34.264Z,31.40
2017-11-03T12:00:01.949Z,31.50
2017-11-03T12:02:29.836Z,33.80
2017-11-03T12:04:57.592Z,33.20
2017-11-03T12:07:25.770Z,34.73
2017-11-03T12:09:54.477Z,32.80
2017-11-03T12:12:23.229Z,36.77
2017-11-03T12:14:50.750Z,32.60
2017-11-03T12:17:18.230Z,31.33
2017-11-03T12:19:45.735Z,31.03
2017-11-03T12:22:13.809Z,33.60
2017-11-03T12:24:42.454Z,30.93
2017-11-03T12:27:10.453Z,31.93
2017-11-03T12:29:38.975Z,31.97
2017-11-03T12:32:07.349Z,31.00
2017-11-03T12:34:35.215Z,30.57
2017-11-03T12:37:03.194Z,31.83
2017-11-03T12:39:31.257Z,30.37
2017-11-03T12:41:59.381Z,30.67
2017-11-03T12:44:28.172Z,29.87
2017-11-03T12:46:56.944Z,30.33
2017-11-03T12:49:24.526Z,30.13
2017-11-03T12:51:52.035Z,30.57
2017-11-03T12:54:19.599Z,30.80
2017-11-03T12:56:47.129Z,30.50
2017-11-03T12:59:14.602Z,30.10
2017-11-03T13:01:42.141Z,29.60
2017-11-03T13:04:09.733Z,29.13
2017-11-03T13:06:37.284Z,28.40
2017-11-03T13:09:04.797Z,30.07
2017-11-03T13:11:33.065Z,33.00
2017-11-03T13:14:00.529Z,29.47
2017-11-03T13:16:28.774Z,28.40
2017-11-03T13:18:56.228Z,30.40
2017-11-03T13:21:23.743Z,29.50
2017-11-03T13:23:51.486Z,29.17
2017-11-03T13:26:19.779Z,29.43
2017-11-03T13:28:47.249Z,33.57
2017-11-03T13:31:14.787Z,32.47
2017-11-03T13:33:43.009Z,32.00
2017-11-03T13:36:10.550Z,30.90
2017-11-03T13:38:38.048Z,30.23
2017-11-03T13:41:07.029Z,29.63
2017-11-03T13:43:36.022Z,30.67
2017-11-03T13:46:03.501Z,31.20
2017-11-03T13:48:31.033Z,29.50
2017-11-03T13:50:58.893Z,31.03
2017-11-03T13:53:26.365Z,28.87
2017-11-03T13:55:54.097Z,27.77
2017-11-03T13:58:21.574Z,29.57
2017-11-03T14:00:49.116Z,30.03
2017-11-03T14:03:16.673Z,29.23
2017-11-03T14:05:44.176Z,30.00
2017-11-03T14:08:13.227Z,29.80
2017-11-03T14:10:40.722Z,29.47
2017-11-03T14:13:09.117Z,30.20
2017-11-03T14:15:37.368Z,29.87
2017-11-03T14:18:05.772Z,28.53
2017-11-03T14:20:33.322Z,28.83
2017-11-03T14:23:01.582Z,28.80
2017-11-03T14:25:29.050Z,30.23
2017-11-03T14:27:58.059Z,33.30
2017-11-03T14:30:26.317Z,32.50
2017-11-03T14:32:53.994Z,30.53
2017-11-03T14:35:21.838Z,32.23
2017-11-03T14:37:49.338Z,32.47
2017-11-03T14:40:16.920Z,31.47
2017-11-03T14:42:44.472Z,31.60
2017-11-03T14:45:11.986Z,33.03
2017-11-03T14:47:40.257Z,30.40
2017-11-03T14:50:08.505Z,31.67
2017-11-03T14:52:36.057Z,29.20
2017-11-03T14:55:03.539Z,29.60
2017-11-03T14:57:30.999Z,29.77
2017-11-03T14:59:59.322Z,29.93
2017-11-03T15:02:26.805Z,28.87
2017-11-03T15:04:54.508Z,29.00
2017-11-03T15:07:22.094Z,28.10
2017-11-03T15:09:49.581Z,31.77
2017-11-03T15:12:17.110Z,28.10
2017-11-03T15:14:44.729Z,28.60
2017-11-03T15:17:12.407Z,29.10
2017-11-03T15:19:40.842Z,28.00
2017-11-03T15:22:08.434Z,27.50
2017-11-03T15:24:37.080Z,31.23
2017-11-03T15:27:04.531Z,32.47
2017-11-03T15:29:32.046Z,30.50
2017-11-03T15:32:00.289Z,29.87
2017-11-03T15:34:28.667Z,30.43
2017-11-03T15:36:56.164Z,29.83
2017-11-03T15:39:24.713Z,28.10
2017-11-03T15:41:52.554Z,27.60
2017-11-03T15:44:20.049Z,27.40
2017-11-03T15:46:47.539Z,26.17
2017-11-03T15:49:15.132Z,28.80
2017-11-03T15:51:42.621Z,26.70
2017-11-03T15:54:11.674Z,28.20
2017-11-03T15:56:39.461Z,26.40
2017-11-03T15:59:06.988Z,26.60
2017-11-03T16:01:34.658Z,28.33
2017-11-03T16:04:02.222Z,25.43
2017-11-03T16:06:29.714Z,26.97
2017-11-03T16:08:57.206Z,25.87
2017-11-03T16:11:24.903Z,26.70
2017-11-03T16:13:52.569Z,25.70
2017-11-03T16:16:20.899Z,26.13
2017-11-03T16:18:48.441Z,26.23
2017-11-03T16:21:16.720Z,25.90
2017-11-03T16:23:45.189Z,27.23
2017-11-03T16:26:12.967Z,28.90
2017-11-03T16:28:41.334Z,29.17
2017-11-03T16:31:10.416Z,28.63
2017-11-03T16:33:37.936Z,28.60
2017-11-03T16:36:05.408Z,26.40
2017-11-03T16:38:32.952Z,27.57
2017-11-03T16:41:00.453Z,26.83
2017-11-03T16:43:28.102Z,28.20
2017-11-03T16:45:55.787Z,28.30
2017-11-03T16:48:23.246Z,27.43
2017-11-03T16:50:51.542Z,25.87
2017-11-03T16:53:19.790Z,28.07
2017-11-03T16:55:47.277Z,26.37
2017-11-03T16:58:14.823Z,26.87
2017-11-03T17:00:43.102Z,25.87
2017-11-03T17:06:04.425Z,27.93
2017-11-03T17:08:32.663Z,29.50
2017-11-03T17:11:00.247Z,27.40
2017-11-03T17:13:27.725Z,27.13
2017-11-03T17:15:55.980Z,28.43
2017-11-03T17:18:24.944Z,28.77
2017-11-03T17:20:52.557Z,27.93
2017-11-03T17:23:20.045Z,28.10
2017-11-03T17:25:47.544Z,28.63
2017-11-03T17:28:15.794Z,30.23
2017-11-03T17:30:43.278Z,31.50
2017-11-03T17:33:11.569Z,29.43
2017-11-03T17:35:39.832Z,29.30
2017-11-03T17:38:07.304Z,28.87
2017-11-03T17:40:35.554Z,31.17
2017-11-03T17:43:03.278Z,29.50
2017-11-03T17:45:30.774Z,30.10
2017-11-03T17:47:58.324Z,30.17
2017-11-03T17:50:25.864Z,28.80
2017-11-03T17:52:53.384Z,29.10
2017-11-03T17:55:20.891Z,32.10
2017-11-03T17:57:48.378Z,30.43
2017-11-03T18:03:17.154Z,29.03
2017-11-03T18:05:44.705Z,28.83
2017-11-03T18:08:12.301Z,29.00
2017-11-03T18:10:40.726Z,30.20
2017-11-03T18:13:08.193Z,28.40
2017-11-03T18:15:35.698Z,27.83
2017-11-03T18:18:04.040Z,28.50
2017-11-03T18:20:31.509Z,30.13
2017-11-03T18:22:59.025Z,31.00
2017-11-03T18:25:26.505Z,25.57
2017-11-03T18:27:54.011Z,27.30
2017-11-03T18:30:22.277Z,28.97
2017-11-03T18:32:51.121Z,29.80
2017-11-03T18:35:18.620Z,28.77
2017-11-03T18:37:46.131Z,29.40
2017-11-03T18:40:13.613Z,32.07
2017-11-03T18:42:41.100Z,30.20
2017-11-03T18:45:09.395Z,29.67
2017-11-03T18:47:37.652Z,30.40
2017-11-03T18:50:06.331Z,32.27
2017-11-03T18:52:33.913Z,30.50
2017-11-03T18:55:02.368Z,30.87
2017-11-03T18:57:29.957Z,31.27
2017-11-03T19:00:01.704Z,30.00
2017-11-03T19:02:31.126Z,31.53
2017-11-03T19:04:59.594Z,29.80
2017-11-03T19:07:27.150Z,30.60
2017-11-03T19:09:54.743Z,31.10
2017-11-03T19:21:14.202Z,29.03
2017-11-03T19:23:42.173Z,26.90
2017-11-03T19:26:09.733Z,28.10
2017-11-03T19:28:37.222Z,26.60
2017-11-03T19:31:05.504Z,23.03
2017-11-03T19:33:33.076Z,23.90
2017-11-03T19:36:00.591Z,23.57
2017-11-03T19:38:28.111Z,22.70
2017-11-03T19:40:56.452Z,22.87
2017-11-03T19:43:24.695Z,22.37
2017-11-03T19:45:52.285Z,22.37
2017-11-03T19:48:20.622Z,22.00
2017-11-03T19:50:48.553Z,22.30
2017-11-03T19:53:16.025Z,20.90
2017-11-03T19:55:43.496Z,18.43
2017-11-03T19:58:10.981Z,19.00
2017-11-03T20:00:38.449Z,19.33
2017-11-03T20:03:06.727Z,18.27
2017-11-03T20:05:35.245Z,20.80
2017-11-03T20:08:03.743Z,20.80
2017-11-03T20:10:31.217Z,23.07
2017-11-03T20:12:58.847Z,22.00
2017-11-03T20:15:27.290Z,21.57
2017-11-03T20:17:55.658Z,20.63
2017-11-03T20:20:23.197Z,20.60
2017-11-03T20:22:52.573Z,20.87
2017-11-03T20:25:20.191Z,20.23
2017-11-03T20:27:48.434Z,20.30
2017-11-03T20:30:16.219Z,18.67
2017-11-03T20:32:43.810Z,21.50
2017-11-03T20:35:11.573Z,20.93
2017-11-03T20:37:39.186Z,18.50
2017-11-03T20:40:07.170Z,20.87
2017-11-03T20:42:34.985Z,30.37
2017-11-03T20:45:02.453Z,30.80
2017-11-03T20:47:30.098Z,31.77
2017-11-03T20:49:57.577Z,27.73
2017-11-03T20:52:40.722Z,36.00
2017-11-03T20:55:08.946Z,32.90
2017-11-03T21:00:47.661Z,18.43
2017-11-03T21:06:29.844Z,16.53
2017-11-03T21:09:08.871Z,16.23
2017-11-03T21:14:43.124Z,18.03
2017-11-03T21:17:10.690Z,19.10
2017-11-03T21:19:38.975Z,17.20
2017-11-03T21:22:07.231Z,15.90
2017-11-03T21:24:34.942Z,15.43
2017-11-03T21:27:02.538Z,16.07
2017-11-03T21:29:30.284Z,15.90
2017-11-03T21:31:58.033Z,16.20
2017-11-03T21:34:26.336Z,15.30
2017-11-03T21:36:59.786Z,15.40
2017-11-03T21:39:27.717Z,15.60
2017-11-03T21:41:55.272Z,15.00
2017-11-03T21:44:22.838Z,15.10
2017-11-03T21:46:52.005Z,14.97
2017-11-03T21:49:19.506Z,15.63
2017-11-03T21:51:47.798Z,14.93
2017-11-03T21:54:15.295Z,14.83
2017-11-03T21:56:42.789Z,13.50
2017-11-03T21:59:10.404Z,14.37
2017-11-03T22:01:37.921Z,13.73
2017-11-03T22:04:05.438Z,15.00
2017-11-03T22:06:33.025Z,15.17
2017-11-03T22:09:00.778Z,14.87
2017-11-03T22:11:28.583Z,13.63
2017-11-03T22:13:56.206Z,14.50
2017-11-03T22:16:24.706Z,13.87
2017-11-03T22:18:52.757Z,14.43
2017-11-03T22:21:20.285Z,16.20
2017-11-03T22:23:48.049Z,15.23
2017-11-03T22:26:15.526Z,14.30
2017-11-03T22:28:43.217Z,15.07
2017-11-03T22:31:11.473Z,16.63
2017-11-03T22:33:39.815Z,16.30
2017-11-03T22:36:07.385Z,16.17
2017-11-03T22:38:34.980Z,17.10
2017-11-03T22:41:03.239Z,16.03
2017-11-03T22:43:31.125Z,17.10
2017-11-03T22:45:59.413Z,16.90
2017-11-03T22:48:27.675Z,17.60
2017-11-03T22:50:55.935Z,16.23
2017-11-03T22:53:23.817Z,17.10
2017-11-03T22:55:52.068Z,15.83
2017-11-03T22:58:19.599Z,16.83
2017-11-03T23:00:47.089Z,15.03
2017-11-03T23:03:14.563Z,16.40
2017-11-03T23:05:42.926Z,17.00
2017-11-03T23:08:12.596Z,15.63
2017-11-03T23:10:40.078Z,16.03
2017-11-03T23:13:07.564Z,15.53
2017-11-03T23:15:35.849Z,16.70
2017-11-03T23:18:04.099Z,18.20
2017-11-03T23:20:32.236Z,16.70
2017-11-03T23:22:59.728Z,17.33
2017-11-03T23:25:27.201Z,15.53
2017-11-03T23:27:55.434Z,17.47
2017-11-03T23:30:22.919Z,16.37
2017-11-03T23:32:50.394Z,16.13
2017-11-03T23:35:18.819Z,16.33
2017-11-03T23:37:46.282Z,17.37
2017-11-03T23:40:13.829Z,17.53
2017-11-03T23:42:41.309Z,17.00
2017-11-03T23:45:09.532Z,18.73
2017-11-03T23:47:38.402Z,18.53
2017-11-03T23:50:05.870Z,17.80
2017-11-03T23:52:34.291Z,19.13
2017-11-03T23:55:11.345Z,18.80
2017-11-03T23:57:39.153Z,20.03
